sensor_id;sensor_type;location;lat;lon;timestamp;temperature;humidity
64685;DHT22;51109;47.414;18.954;2023-11-19T00:00:43;2.60;99.90
64685;DHT22;51109;47.414;18.954;2023-11-19T00:03:09;2.50;99.90
64685;DHT22;51109;47.414;18.954;2023-11-19T00:05:39;2.50;99.90
64685;DHT22;51109;47.414;18.954;2023-11-19T00:08:04;2.40;99.90
64685;DHT22;51109;47.414;18.954;2023-11-19T00:10:31;2.50;99.90
64685;DHT22;51109;47.414;18.954;2023-11-19T00:12:57;2.50;99.90
64685;DHT22;51109;47.414;18.954;2023-11-19T00:15:23;2.50;99.90
64685;DHT22;51109;47.414;18.954;2023-11-19T00:17:50;2.50;99.90
64685;DHT22;51109;47.414;18.954;2023-11-19T00:20:19;2.40;99.90
64685;DHT22;51109;47.414;18.954;2023-11-19T00:22:47;2.40;99.90
64685;DHT22;51109;47.414;18.954;2023-11-19T00:25:20;2.40;99.90
64685;DHT22;51109;47.414;18.954;2023-11-19T00:27:47;2.30;99.90
64685;DHT22;51109;47.414;18.954;2023-11-19T00:30:14;2.30;99.90
64685;DHT22;51109;47.414;18.954;2023-11-19T00:32:40;2.20;99.90
64685;DHT22;51109;47.414;18.954;2023-11-19T00:35:07;2.10;99.90
64685;DHT22;51109;47.414;18.954;2023-11-19T00:37:36;2.20;99.90
64685;DHT22;51109;47.414;18.954;2023-11-19T00:40:02;2.10;99.90
64685;DHT22;51109;47.414;18.954;2023-11-19T00:42:31;2.00;99.90
64685;DHT22;51109;47.414;18.954;2023-11-19T00:44:57;1.90;99.90
64685;DHT22;51109;47.414;18.954;2023-11-19T00:47:23;2.00;99.90
64685;DHT22;51109;47.414;18.954;2023-11-19T00:49:49;2.00;99.90
64685;DHT22;51109;47.414;18.954;2023-11-19T00:52:16;2.00;99.90
64685;DHT22;51109;47.414;18.954;2023-11-19T00:54:42;1.90;99.90
64685;DHT22;51109;47.414;18.954;2023-11-19T00:57:08;2.00;99.90
64685;DHT22;51109;47.414;18.954;2023-11-19T00:59:34;1.80;99.90
64685;DHT22;51109;47.414;18.954;2023-11-19T01:02:00;1.80;99.90
64685;DHT22;51109;47.414;18.954;2023-11-19T01:04:34;1.90;99.90
64685;DHT22;51109;47.414;18.954;2023-11-19T01:07:05;1.90;99.90
64685;DHT22;51109;47.414;18.954;2023-11-19T01:09:32;1.80;99.90
64685;DHT22;51109;47.414;18.954;2023-11-19T01:12:01;1.80;99.90
64685;DHT22;51109;47.414;18.954;2023-11-19T01:14:28;1.80;99.90
64685;DHT22;51109;47.414;18.954;2023-11-19T01:16:54;1.80;99.90
64685;DHT22;51109;47.414;18.954;2023-11-19T01:19:21;1.80;99.90
64685;DHT22;51109;47.414;18.954;2023-11-19T01:21:48;1.60;99.90
64685;DHT22;51109;47.414;18.954;2023-11-19T01:24:14;1.60;99.90
64685;DHT22;51109;47.414;18.954;2023-11-19T01:26:40;1.60;99.90
64685;DHT22;51109;47.414;18.954;2023-11-19T01:29:16;1.70;99.90
64685;DHT22;51109;47.414;18.954;2023-11-19T01:31:42;1.70;99.90
64685;DHT22;51109;47.414;18.954;2023-11-19T01:34:10;1.70;99.90
64685;DHT22;51109;47.414;18.954;2023-11-19T01:36:37;1.70;99.90
64685;DHT22;51109;47.414;18.954;2023-11-19T01:39:03;1.70;99.90
64685;DHT22;51109;47.414;18.954;2023-11-19T01:41:35;1.70;99.90
64685;DHT22;51109;47.414;18.954;2023-11-19T01:44:02;1.80;99.90
64685;DHT22;51109;47.414;18.954;2023-11-19T01:46:28;1.80;99.90
64685;DHT22;51109;47.414;18.954;2023-11-19T01:48:55;1.70;99.90
64685;DHT22;51109;47.414;18.954;2023-11-19T01:51:22;1.60;99.90
64685;DHT22;51109;47.414;18.954;2023-11-19T01:53:48;1.50;99.90
64685;DHT22;51109;47.414;18.954;2023-11-19T01:56:15;1.50;99.90
64685;DHT22;51109;47.414;18.954;2023-11-19T01:58:43;1.40;99.90
64685;DHT22;51109;47.414;18.954;2023-11-19T02:03:58;1.70;99.90
64685;DHT22;51109;47.414;18.954;2023-11-19T02:06:25;1.80;99.90
64685;DHT22;51109;47.414;18.954;2023-11-19T02:08:51;1.70;99.90
64685;DHT22;51109;47.414;18.954;2023-11-19T02:11:17;1.50;99.90
64685;DHT22;51109;47.414;18.954;2023-11-19T02:13:43;1.40;99.90
64685;DHT22;51109;47.414;18.954;2023-11-19T02:16:10;1.50;99.90
64685;DHT22;51109;47.414;18.954;2023-11-19T02:18:36;1.60;99.90
64685;DHT22;51109;47.414;18.954;2023-11-19T02:21:02;1.70;99.90
64685;DHT22;51109;47.414;18.954;2023-11-19T02:23:28;1.70;99.90
64685;DHT22;51109;47.414;18.954;2023-11-19T02:28:43;1.40;99.90
64685;DHT22;51109;47.414;18.954;2023-11-19T02:31:09;1.40;99.90
64685;DHT22;51109;47.414;18.954;2023-11-19T02:33:37;1.40;99.90
64685;DHT22;51109;47.414;18.954;2023-11-19T02:36:04;1.40;99.90
64685;DHT22;51109;47.414;18.954;2023-11-19T02:38:30;1.40;99.90
64685;DHT22;51109;47.414;18.954;2023-11-19T02:40:57;1.50;99.90
64685;DHT22;51109;47.414;18.954;2023-11-19T02:43:23;1.50;99.90
64685;DHT22;51109;47.414;18.954;2023-11-19T02:45:49;1.50;99.90
64685;DHT22;51109;47.414;18.954;2023-11-19T02:48:14;1.50;99.90
64685;DHT22;51109;47.414;18.954;2023-11-19T02:50:42;1.50;99.90
64685;DHT22;51109;47.414;18.954;2023-11-19T02:53:08;1.40;99.90
64685;DHT22;51109;47.414;18.954;2023-11-19T02:55:34;1.50;99.90
64685;DHT22;51109;47.414;18.954;2023-11-19T02:58:04;1.40;99.90
64685;DHT22;51109;47.414;18.954;2023-11-19T03:00:35;1.30;99.90
64685;DHT22;51109;47.414;18.954;2023-11-19T03:03:03;1.40;99.90
64685;DHT22;51109;47.414;18.954;2023-11-19T03:05:58;1.50;99.90
64685;DHT22;51109;47.414;18.954;2023-11-19T03:08:24;1.40;99.90
64685;DHT22;51109;47.414;18.954;2023-11-19T03:10:50;1.30;99.90
64685;DHT22;51109;47.414;18.954;2023-11-19T03:13:16;1.30;99.90
64685;DHT22;51109;47.414;18.954;2023-11-19T03:15:44;1.50;99.90
64685;DHT22;51109;47.414;18.954;2023-11-19T03:18:11;1.40;99.90
64685;DHT22;51109;47.414;18.954;2023-11-19T03:20:37;1.40;99.90
64685;DHT22;51109;47.414;18.954;2023-11-19T03:23:03;1.30;99.90
64685;DHT22;51109;47.414;18.954;2023-11-19T03:25:29;1.40;99.90
64685;DHT22;51109;47.414;18.954;2023-11-19T03:28:03;1.50;99.90
64685;DHT22;51109;47.414;18.954;2023-11-19T03:30:29;1.40;99.90
64685;DHT22;51109;47.414;18.954;2023-11-19T03:32:59;1.60;99.90
64685;DHT22;51109;47.414;18.954;2023-11-19T03:35:28;1.50;99.90
64685;DHT22;51109;47.414;18.954;2023-11-19T03:37:54;1.50;99.90
64685;DHT22;51109;47.414;18.954;2023-11-19T03:40:20;1.60;99.90
64685;DHT22;51109;47.414;18.954;2023-11-19T03:42:46;1.40;99.90
64685;DHT22;51109;47.414;18.954;2023-11-19T03:45:12;1.30;99.90
64685;DHT22;51109;47.414;18.954;2023-11-19T03:47:39;1.40;99.90
64685;DHT22;51109;47.414;18.954;2023-11-19T03:50:06;1.40;99.90
64685;DHT22;51109;47.414;18.954;2023-11-19T03:52:33;1.30;99.90
64685;DHT22;51109;47.414;18.954;2023-11-19T03:54:59;1.10;99.90
64685;DHT22;51109;47.414;18.954;2023-11-19T03:57:27;1.00;99.90
64685;DHT22;51109;47.414;18.954;2023-11-19T03:59:53;1.00;99.90
64685;DHT22;51109;47.414;18.954;2023-11-19T04:02:21;1.10;99.90
64685;DHT22;51109;47.414;18.954;2023-11-19T04:04:47;1.20;99.90
64685;DHT22;51109;47.414;18.954;2023-11-19T04:07:13;1.20;99.90
64685;DHT22;51109;47.414;18.954;2023-11-19T04:09:39;1.30;99.90
64685;DHT22;51109;47.414;18.954;2023-11-19T04:12:05;1.30;99.90
64685;DHT22;51109;47.414;18.954;2023-11-19T04:14:32;1.20;99.90
64685;DHT22;51109;47.414;18.954;2023-11-19T04:16:58;1.20;99.90
64685;DHT22;51109;47.414;18.954;2023-11-19T04:19:24;1.20;99.90
64685;DHT22;51109;47.414;18.954;2023-11-19T04:21:50;1.30;99.90
64685;DHT22;51109;47.414;18.954;2023-11-19T04:24:16;1.30;99.90
64685;DHT22;51109;47.414;18.954;2023-11-19T04:26:42;1.20;99.90
64685;DHT22;51109;47.414;18.954;2023-11-19T04:29:16;1.10;99.90
64685;DHT22;51109;47.414;18.954;2023-11-19T04:31:45;0.90;99.90
64685;DHT22;51109;47.414;18.954;2023-11-19T04:34:11;0.90;99.90
64685;DHT22;51109;47.414;18.954;2023-11-19T04:36:37;1.00;99.90
64685;DHT22;51109;47.414;18.954;2023-11-19T04:39:05;0.90;99.90
64685;DHT22;51109;47.414;18.954;2023-11-19T04:41:50;0.80;99.90
64685;DHT22;51109;47.414;18.954;2023-11-19T04:44:19;0.70;99.90
64685;DHT22;51109;47.414;18.954;2023-11-19T04:46:45;0.70;99.90
64685;DHT22;51109;47.414;18.954;2023-11-19T04:49:12;0.70;99.90
64685;DHT22;51109;47.414;18.954;2023-11-19T04:51:43;0.60;99.90
64685;DHT22;51109;47.414;18.954;2023-11-19T04:54:09;0.70;99.90
64685;DHT22;51109;47.414;18.954;2023-11-19T04:56:39;0.70;99.90
64685;DHT22;51109;47.414;18.954;2023-11-19T04:59:06;0.70;99.90
64685;DHT22;51109;47.414;18.954;2023-11-19T05:01:32;0.80;99.90
64685;DHT22;51109;47.414;18.954;2023-11-19T05:03:59;0.80;99.90
64685;DHT22;51109;47.414;18.954;2023-11-19T05:06:31;1.00;99.90
64685;DHT22;51109;47.414;18.954;2023-11-19T05:08:59;0.90;99.90
64685;DHT22;51109;47.414;18.954;2023-11-19T05:11:33;0.90;99.90
64685;DHT22;51109;47.414;18.954;2023-11-19T05:14:01;1.10;99.90
64685;DHT22;51109;47.414;18.954;2023-11-19T05:16:29;1.20;99.90
64685;DHT22;51109;47.414;18.954;2023-11-19T05:18:55;1.30;99.90
64685;DHT22;51109;47.414;18.954;2023-11-19T05:21:21;1.30;99.90
64685;DHT22;51109;47.414;18.954;2023-11-19T05:23:47;1.30;99.90
64685;DHT22;51109;47.414;18.954;2023-11-19T05:26:23;1.40;99.90
64685;DHT22;51109;47.414;18.954;2023-11-19T05:28:50;1.30;99.90
64685;DHT22;51109;47.414;18.954;2023-11-19T05:31:16;1.30;99.90
64685;DHT22;51109;47.414;18.954;2023-11-19T05:33:42;1.30;99.90
64685;DHT22;51109;47.414;18.954;2023-11-19T05:36:10;1.40;99.90
64685;DHT22;51109;47.414;18.954;2023-11-19T05:38:36;1.40;99.90
64685;DHT22;51109;47.414;18.954;2023-11-19T05:41:05;1.40;99.90
64685;DHT22;51109;47.414;18.954;2023-11-19T05:43:32;1.40;99.90
64685;DHT22;51109;47.414;18.954;2023-11-19T05:45:58;1.30;99.90
64685;DHT22;51109;47.414;18.954;2023-11-19T05:48:26;1.30;99.90
64685;DHT22;51109;47.414;18.954;2023-11-19T05:50:52;1.40;99.90
64685;DHT22;51109;47.414;18.954;2023-11-19T05:53:18;1.40;99.90
64685;DHT22;51109;47.414;18.954;2023-11-19T05:55:44;1.30;99.90
64685;DHT22;51109;47.414;18.954;2023-11-19T05:58:26;1.30;99.90
64685;DHT22;51109;47.414;18.954;2023-11-19T06:00:57;1.20;99.90
64685;DHT22;51109;47.414;18.954;2023-11-19T06:03:23;1.30;99.90
64685;DHT22;51109;47.414;18.954;2023-11-19T06:05:49;1.30;99.90
64685;DHT22;51109;47.414;18.954;2023-11-19T06:08:16;1.40;99.90
64685;DHT22;51109;47.414;18.954;2023-11-19T06:10:43;1.30;99.90
64685;DHT22;51109;47.414;18.954;2023-11-19T06:13:12;1.20;99.90
64685;DHT22;51109;47.414;18.954;2023-11-19T06:15:38;1.20;99.90
64685;DHT22;51109;47.414;18.954;2023-11-19T06:18:04;1.30;99.90
64685;DHT22;51109;47.414;18.954;2023-11-19T06:20:36;1.40;99.90
64685;DHT22;51109;47.414;18.954;2023-11-19T06:25:31;1.50;99.90
64685;DHT22;51109;47.414;18.954;2023-11-19T06:27:57;2.60;99.90
64685;DHT22;51109;47.414;18.954;2023-11-19T06:30:23;1.40;99.90
64685;DHT22;51109;47.414;18.954;2023-11-19T06:35:16;1.40;99.90
64685;DHT22;51109;47.414;18.954;2023-11-19T06:42:40;1.50;99.90
64685;DHT22;51109;47.414;18.954;2023-11-19T06:47:33;1.60;99.90
64685;DHT22;51109;47.414;18.954;2023-11-19T06:49:59;1.50;99.90
64685;DHT22;51109;47.414;18.954;2023-11-19T06:54:51;1.70;99.90
64685;DHT22;51109;47.414;18.954;2023-11-19T06:57:20;2.00;99.90
64685;DHT22;51109;47.414;18.954;2023-11-19T06:59:46;1.90;99.90
64685;DHT22;51109;47.414;18.954;2023-11-19T07:02:12;2.00;99.90
64685;DHT22;51109;47.414;18.954;2023-11-19T07:07:07;2.00;99.90
64685;DHT22;51109;47.414;18.954;2023-11-19T07:09:33;2.10;99.90
64685;DHT22;51109;47.414;18.954;2023-11-19T07:11:59;2.10;99.90
64685;DHT22;51109;47.414;18.954;2023-11-19T07:26:46;2.50;99.90
64685;DHT22;51109;47.414;18.954;2023-11-19T07:31:42;2.40;99.90
64685;DHT22;51109;47.414;18.954;2023-11-19T07:39:07;2.40;99.90
64685;DHT22;51109;47.414;18.954;2023-11-19T07:46:30;2.40;99.90
64685;DHT22;51109;47.414;18.954;2023-11-19T07:48:59;2.40;99.90
64685;DHT22;51109;47.414;18.954;2023-11-19T07:51:31;2.50;99.90
64685;DHT22;51109;47.414;18.954;2023-11-19T08:16:00;2.70;99.90
64685;DHT22;51109;47.414;18.954;2023-11-19T08:25:46;2.90;99.90
64685;DHT22;51109;47.414;18.954;2023-11-19T08:33:07;2.90;99.90
64685;DHT22;51109;47.414;18.954;2023-11-19T08:42:56;2.90;99.90
64685;DHT22;51109;47.414;18.954;2023-11-19T08:50:15;3.00;99.90
64685;DHT22;51109;47.414;18.954;2023-11-19T09:02:35;3.10;99.90
64685;DHT22;51109;47.414;18.954;2023-11-19T09:05:04;3.10;99.90
64685;DHT22;51109;47.414;18.954;2023-11-19T09:09:56;3.20;99.90
64685;DHT22;51109;47.414;18.954;2023-11-19T09:14:51;3.30;99.90
64685;DHT22;51109;47.414;18.954;2023-11-19T09:19:46;3.30;99.90
64685;DHT22;51109;47.414;18.954;2023-11-19T09:27:12;3.40;99.90
64685;DHT22;51109;47.414;18.954;2023-11-19T09:29:38;3.50;99.90
64685;DHT22;51109;47.414;18.954;2023-11-19T09:32:05;3.50;99.90
64685;DHT22;51109;47.414;18.954;2023-11-19T09:39:24;3.40;99.90
64685;DHT22;51109;47.414;18.954;2023-11-19T09:41:51;3.50;99.90
64685;DHT22;51109;47.414;18.954;2023-11-19T09:49:13;3.60;99.90
64685;DHT22;51109;47.414;18.954;2023-11-19T09:51:40;3.70;99.90
64685;DHT22;51109;47.414;18.954;2023-11-19T09:59:02;3.80;99.90
64685;DHT22;51109;47.414;18.954;2023-11-19T10:01:29;3.60;99.90
64685;DHT22;51109;47.414;18.954;2023-11-19T10:08:56;3.90;99.90
64685;DHT22;51109;47.414;18.954;2023-11-19T10:18:46;3.90;99.90
64685;DHT22;51109;47.414;18.954;2023-11-19T10:23:54;4.00;99.90
64685;DHT22;51109;47.414;18.954;2023-11-19T10:26:22;4.00;99.90
64685;DHT22;51109;47.414;18.954;2023-11-19T10:31:16;4.00;99.90
64685;DHT22;51109;47.414;18.954;2023-11-19T10:33:46;3.90;99.90
64685;DHT22;51109;47.414;18.954;2023-11-19T10:38:54;4.20;99.90
64685;DHT22;51109;47.414;18.954;2023-11-19T10:41:31;4.30;99.90
64685;DHT22;51109;47.414;18.954;2023-11-19T10:43:58;4.20;99.90
64685;DHT22;51109;47.414;18.954;2023-11-19T10:46:40;4.20;99.90
64685;DHT22;51109;47.414;18.954;2023-11-19T10:54:05;4.30;99.90
64685;DHT22;51109;47.414;18.954;2023-11-19T10:56:34;4.30;99.90
64685;DHT22;51109;47.414;18.954;2023-11-19T10:59:07;4.30;99.90
64685;DHT22;51109;47.414;18.954;2023-11-19T11:01:45;4.30;99.90
64685;DHT22;51109;47.414;18.954;2023-11-19T11:04:14;4.30;99.90
64685;DHT22;51109;47.414;18.954;2023-11-19T11:06:46;4.30;99.90
64685;DHT22;51109;47.414;18.954;2023-11-19T11:09:13;4.20;99.90
64685;DHT22;51109;47.414;18.954;2023-11-19T11:11:41;4.10;99.90
64685;DHT22;51109;47.414;18.954;2023-11-19T11:14:12;4.20;99.90
64685;DHT22;51109;47.414;18.954;2023-11-19T11:16:43;4.20;99.90
64685;DHT22;51109;47.414;18.954;2023-11-19T11:19:10;4.30;99.90
64685;DHT22;51109;47.414;18.954;2023-11-19T11:21:43;4.30;99.90
64685;DHT22;51109;47.414;18.954;2023-11-19T11:30:31;4.30;99.90
64685;DHT22;51109;47.414;18.954;2023-11-19T11:38:10;4.40;99.90
64685;DHT22;51109;47.414;18.954;2023-11-19T11:40:36;4.40;99.90
64685;DHT22;51109;47.414;18.954;2023-11-19T11:43:03;4.20;99.90
64685;DHT22;51109;47.414;18.954;2023-11-19T11:45:40;4.30;99.90
64685;DHT22;51109;47.414;18.954;2023-11-19T11:48:14;4.30;99.90
64685;DHT22;51109;47.414;18.954;2023-11-19T11:50:52;4.40;99.90
64685;DHT22;51109;47.414;18.954;2023-11-19T11:53:20;4.40;99.90
64685;DHT22;51109;47.414;18.954;2023-11-19T11:58:28;4.50;99.90
64685;DHT22;51109;47.414;18.954;2023-11-19T12:00:58;4.50;99.90
64685;DHT22;51109;47.414;18.954;2023-11-19T12:03:27;4.50;99.90
64685;DHT22;51109;47.414;18.954;2023-11-19T12:05:55;4.60;99.90
64685;DHT22;51109;47.414;18.954;2023-11-19T12:08:26;4.60;99.90
64685;DHT22;51109;47.414;18.954;2023-11-19T12:10:54;4.60;99.90
64685;DHT22;51109;47.414;18.954;2023-11-19T12:13:24;4.70;99.90
64685;DHT22;51109;47.414;18.954;2023-11-19T12:18:28;4.80;99.90
64685;DHT22;51109;47.414;18.954;2023-11-19T12:20:55;4.80;99.90
64685;DHT22;51109;47.414;18.954;2023-11-19T12:23:22;4.70;99.90
64685;DHT22;51109;47.414;18.954;2023-11-19T12:25:48;4.80;99.90
64685;DHT22;51109;47.414;18.954;2023-11-19T12:28:15;4.90;99.90
64685;DHT22;51109;47.414;18.954;2023-11-19T12:30:45;4.90;99.90
64685;DHT22;51109;47.414;18.954;2023-11-19T12:33:13;4.90;99.90
64685;DHT22;51109;47.414;18.954;2023-11-19T12:35:43;5.00;99.90
64685;DHT22;51109;47.414;18.954;2023-11-19T12:38:22;5.00;99.90
64685;DHT22;51109;47.414;18.954;2023-11-19T12:43:30;5.00;99.90
64685;DHT22;51109;47.414;18.954;2023-11-19T12:45:56;4.90;99.90
64685;DHT22;51109;47.414;18.954;2023-11-19T12:48:22;5.00;99.90
64685;DHT22;51109;47.414;18.954;2023-11-19T12:50:56;5.00;99.90
64685;DHT22;51109;47.414;18.954;2023-11-19T12:53:24;5.00;99.90
64685;DHT22;51109;47.414;18.954;2023-11-19T12:55:51;4.90;99.90
64685;DHT22;51109;47.414;18.954;2023-11-19T12:58:47;4.90;99.90
64685;DHT22;51109;47.414;18.954;2023-11-19T13:01:18;4.90;99.90
64685;DHT22;51109;47.414;18.954;2023-11-19T13:03:46;4.90;99.90
64685;DHT22;51109;47.414;18.954;2023-11-19T13:06:13;4.90;99.90
64685;DHT22;51109;47.414;18.954;2023-11-19T13:11:33;4.90;99.90
64685;DHT22;51109;47.414;18.954;2023-11-19T13:14:03;5.00;99.90
64685;DHT22;51109;47.414;18.954;2023-11-19T13:16:38;5.00;99.90
64685;DHT22;51109;47.414;18.954;2023-11-19T14:08:04;5.10;99.90
64685;DHT22;51109;47.414;18.954;2023-11-19T14:13:07;5.10;99.90
64685;DHT22;51109;47.414;18.954;2023-11-19T14:27:54;5.00;99.90
64685;DHT22;51109;47.414;18.954;2023-11-19T14:30:22;5.00;99.90
64685;DHT22;51109;47.414;18.954;2023-11-19T14:37:41;4.90;99.90
64685;DHT22;51109;47.414;18.954;2023-11-19T14:42:37;4.90;99.90
64685;DHT22;51109;47.414;18.954;2023-11-19T14:45:07;4.90;99.90
64685;DHT22;51109;47.414;18.954;2023-11-19T14:50:00;4.90;99.90
64685;DHT22;51109;47.414;18.954;2023-11-19T14:52:26;4.80;99.90
64685;DHT22;51109;47.414;18.954;2023-11-19T14:54:53;4.80;99.90
64685;DHT22;51109;47.414;18.954;2023-11-19T14:57:23;4.80;99.90
64685;DHT22;51109;47.414;18.954;2023-11-19T14:59:49;4.80;99.90
64685;DHT22;51109;47.414;18.954;2023-11-19T15:04:41;4.70;99.90
64685;DHT22;51109;47.414;18.954;2023-11-19T15:07:10;4.80;99.90
64685;DHT22;51109;47.414;18.954;2023-11-19T15:09:40;4.80;99.90
64685;DHT22;51109;47.414;18.954;2023-11-19T15:12:07;4.80;99.90
64685;DHT22;51109;47.414;18.954;2023-11-19T15:14:36;4.60;99.90
64685;DHT22;51109;47.414;18.954;2023-11-19T15:24:23;4.70;99.90
64685;DHT22;51109;47.414;18.954;2023-11-19T15:29:24;4.80;99.90
64685;DHT22;51109;47.414;18.954;2023-11-19T15:31:51;4.80;99.90
64685;DHT22;51109;47.414;18.954;2023-11-19T15:34:17;4.80;99.90
64685;DHT22;51109;47.414;18.954;2023-11-19T15:46:40;4.70;99.90
64685;DHT22;51109;47.414;18.954;2023-11-19T15:51:39;4.60;99.90
64685;DHT22;51109;47.414;18.954;2023-11-19T15:54:05;4.70;99.90
64685;DHT22;51109;47.414;18.954;2023-11-19T16:16:07;4.80;99.90
64685;DHT22;51109;47.414;18.954;2023-11-19T16:25:53;4.80;99.90
64685;DHT22;51109;47.414;18.954;2023-11-19T16:55:25;4.40;99.90
64685;DHT22;51109;47.414;18.954;2023-11-19T16:57:51;4.50;99.90
64685;DHT22;51109;47.414;18.954;2023-11-19T17:07:38;4.50;99.90
64685;DHT22;51109;47.414;18.954;2023-11-19T17:17:31;4.60;99.90
64685;DHT22;51109;47.414;18.954;2023-11-19T17:22:36;4.70;99.90
64685;DHT22;51109;47.414;18.954;2023-11-19T18:04:28;4.70;99.90
64685;DHT22;51109;47.414;18.954;2023-11-19T18:24:06;4.80;99.90
64685;DHT22;51109;47.414;18.954;2023-11-19T18:33:54;4.80;99.90
64685;DHT22;51109;47.414;18.954;2023-11-19T18:36:20;4.80;99.90
64685;DHT22;51109;47.414;18.954;2023-11-19T18:41:13;4.70;99.90
64685;DHT22;51109;47.414;18.954;2023-11-19T19:03:21;4.80;99.90
64685;DHT22;51109;47.414;18.954;2023-11-19T19:18:02;4.80;99.90
64685;DHT22;51109;47.414;18.954;2023-11-19T19:20:29;4.70;99.90
64685;DHT22;51109;47.414;18.954;2023-11-19T19:22:55;4.80;99.90
64685;DHT22;51109;47.414;18.954;2023-11-19T19:27:53;4.80;99.90
64685;DHT22;51109;47.414;18.954;2023-11-19T19:30:20;4.70;99.90
64685;DHT22;51109;47.414;18.954;2023-11-19T19:35:13;4.70;99.90
64685;DHT22;51109;47.414;18.954;2023-11-19T19:37:39;4.80;99.90
64685;DHT22;51109;47.414;18.954;2023-11-19T19:40:06;4.70;99.90
64685;DHT22;51109;47.414;18.954;2023-11-19T19:42:35;4.70;99.90
64685;DHT22;51109;47.414;18.954;2023-11-19T19:57:30;4.20;99.90
64685;DHT22;51109;47.414;18.954;2023-11-19T19:59:56;4.20;99.90
64685;DHT22;51109;47.414;18.954;2023-11-19T20:24:27;4.50;99.90
64685;DHT22;51109;47.414;18.954;2023-11-19T20:26:57;4.60;99.90
64685;DHT22;51109;47.414;18.954;2023-11-19T20:29:25;4.60;99.90
64685;DHT22;51109;47.414;18.954;2023-11-19T20:31:51;4.60;99.90
64685;DHT22;51109;47.414;18.954;2023-11-19T20:34:17;4.70;99.90
64685;DHT22;51109;47.414;18.954;2023-11-19T20:36:43;4.70;99.90
64685;DHT22;51109;47.414;18.954;2023-11-19T20:39:09;4.70;99.90
64685;DHT22;51109;47.414;18.954;2023-11-19T20:41:38;4.70;99.90
64685;DHT22;51109;47.414;18.954;2023-11-19T20:44:05;4.70;99.90
64685;DHT22;51109;47.414;18.954;2023-11-19T20:46:30;4.70;99.90
64685;DHT22;51109;47.414;18.954;2023-11-19T20:48:57;4.70;99.90
64685;DHT22;51109;47.414;18.954;2023-11-19T20:51:23;4.60;99.90
64685;DHT22;51109;47.414;18.954;2023-11-19T20:53:49;4.50;99.90
64685;DHT22;51109;47.414;18.954;2023-11-19T20:56:16;4.50;99.90
64685;DHT22;51109;47.414;18.954;2023-11-19T20:58:42;4.60;99.90
64685;DHT22;51109;47.414;18.954;2023-11-19T21:01:08;4.60;99.90
64685;DHT22;51109;47.414;18.954;2023-11-19T21:03:34;4.60;99.90
64685;DHT22;51109;47.414;18.954;2023-11-19T21:06:03;4.60;99.90
64685;DHT22;51109;47.414;18.954;2023-11-19T21:08:29;4.60;99.90
64685;DHT22;51109;47.414;18.954;2023-11-19T21:10:55;4.60;99.90
64685;DHT22;51109;47.414;18.954;2023-11-19T21:13:21;4.70;99.90
64685;DHT22;51109;47.414;18.954;2023-11-19T21:15:47;4.80;99.90
64685;DHT22;51109;47.414;18.954;2023-11-19T21:18:15;4.80;99.90
64685;DHT22;51109;47.414;18.954;2023-11-19T21:20:41;4.90;99.90
64685;DHT22;51109;47.414;18.954;2023-11-19T21:23:07;4.90;99.90
64685;DHT22;51109;47.414;18.954;2023-11-19T21:25:33;4.90;99.90
64685;DHT22;51109;47.414;18.954;2023-11-19T21:27:59;4.90;99.90
64685;DHT22;51109;47.414;18.954;2023-11-19T21:30:25;4.90;99.90
64685;DHT22;51109;47.414;18.954;2023-11-19T21:32:51;4.90;99.90
64685;DHT22;51109;47.414;18.954;2023-11-19T21:35:18;4.80;99.90
64685;DHT22;51109;47.414;18.954;2023-11-19T21:37:44;4.80;99.90
64685;DHT22;51109;47.414;18.954;2023-11-19T21:40:10;4.70;99.90
64685;DHT22;51109;47.414;18.954;2023-11-19T21:42:37;4.70;99.90
64685;DHT22;51109;47.414;18.954;2023-11-19T21:45:03;4.60;99.90
64685;DHT22;51109;47.414;18.954;2023-11-19T21:47:29;4.60;99.90
64685;DHT22;51109;47.414;18.954;2023-11-19T21:49:55;4.60;99.90
64685;DHT22;51109;47.414;18.954;2023-11-19T21:52:21;4.60;99.90
64685;DHT22;51109;47.414;18.954;2023-11-19T21:54:47;4.60;99.90
64685;DHT22;51109;47.414;18.954;2023-11-19T21:57:14;4.60;99.90
64685;DHT22;51109;47.414;18.954;2023-11-19T21:59:40;4.60;99.90
64685;DHT22;51109;47.414;18.954;2023-11-19T22:02:06;4.60;99.90
64685;DHT22;51109;47.414;18.954;2023-11-19T22:04:35;4.60;99.90
64685;DHT22;51109;47.414;18.954;2023-11-19T22:07:01;4.60;99.90
64685;DHT22;51109;47.414;18.954;2023-11-19T22:09:27;4.60;99.90
64685;DHT22;51109;47.414;18.954;2023-11-19T22:11:53;4.50;99.90
64685;DHT22;51109;47.414;18.954;2023-11-19T22:14:19;4.50;99.90
64685;DHT22;51109;47.414;18.954;2023-11-19T22:16:46;4.50;99.90
64685;DHT22;51109;47.414;18.954;2023-11-19T22:19:12;4.50;99.90
64685;DHT22;51109;47.414;18.954;2023-11-19T22:21:38;4.40;99.90
64685;DHT22;51109;47.414;18.954;2023-11-19T22:24:05;4.30;99.90
64685;DHT22;51109;47.414;18.954;2023-11-19T22:26:31;4.20;99.90
64685;DHT22;51109;47.414;18.954;2023-11-19T22:28:57;4.20;99.90
64685;DHT22;51109;47.414;18.954;2023-11-19T22:31:26;4.00;99.90
64685;DHT22;51109;47.414;18.954;2023-11-19T22:33:52;4.10;99.90
64685;DHT22;51109;47.414;18.954;2023-11-19T22:36:18;4.10;99.90
64685;DHT22;51109;47.414;18.954;2023-11-19T22:38:44;3.90;99.90
64685;DHT22;51109;47.414;18.954;2023-11-19T22:41:10;3.80;99.90
64685;DHT22;51109;47.414;18.954;2023-11-19T22:43:36;3.90;99.90
64685;DHT22;51109;47.414;18.954;2023-11-19T22:46:02;4.00;99.90
64685;DHT22;51109;47.414;18.954;2023-11-19T22:48:28;4.00;99.90
64685;DHT22;51109;47.414;18.954;2023-11-19T22:50:54;3.90;99.90
64685;DHT22;51109;47.414;18.954;2023-11-19T22:53:20;3.80;99.90
64685;DHT22;51109;47.414;18.954;2023-11-19T22:55:46;3.80;99.90
64685;DHT22;51109;47.414;18.954;2023-11-19T22:58:11;3.70;99.90
64685;DHT22;51109;47.414;18.954;2023-11-19T23:00:37;3.70;99.90
64685;DHT22;51109;47.414;18.954;2023-11-19T23:03:04;3.80;99.90
64685;DHT22;51109;47.414;18.954;2023-11-19T23:05:30;3.80;99.90
64685;DHT22;51109;47.414;18.954;2023-11-19T23:07:57;3.80;99.90
64685;DHT22;51109;47.414;18.954;2023-11-19T23:10:24;3.90;99.90
64685;DHT22;51109;47.414;18.954;2023-11-19T23:12:50;3.90;99.90
64685;DHT22;51109;47.414;18.954;2023-11-19T23:15:15;3.90;99.90
64685;DHT22;51109;47.414;18.954;2023-11-19T23:17:42;3.80;99.90
64685;DHT22;51109;47.414;18.954;2023-11-19T23:20:09;3.80;99.90
64685;DHT22;51109;47.414;18.954;2023-11-19T23:22:42;3.70;99.90
64685;DHT22;51109;47.414;18.954;2023-11-19T23:25:09;3.70;99.90
64685;DHT22;51109;47.414;18.954;2023-11-19T23:27:35;3.70;99.90
64685;DHT22;51109;47.414;18.954;2023-11-19T23:30:02;3.70;99.90
64685;DHT22;51109;47.414;18.954;2023-11-19T23:32:28;3.70;99.90
64685;DHT22;51109;47.414;18.954;2023-11-19T23:34:55;3.80;99.90
64685;DHT22;51109;47.414;18.954;2023-11-19T23:37:21;3.70;99.90